Time;durP1;ratioP1;P1;durP2;ratioP2;P2;SDS_P1;SDS_P2;PMS_P1;PMS_P2;Temp;Humidity;BMP_temperature;BMP_pressure;BME280_temperature;BME280_humidity;BME280_pressure;Samples;Min_cycle;Max_cycle;Signal;HPM_P1;HPM_P2
2021/12/25 00:01:30;;;;;;;0.10;0.10;;;;;;;;;;4862288;29;20449;-89
2021/12/25 00:03:56;;;;;;;0.10;0.10;;;;;;;;;;4861824;29;20049;-89
2021/12/25 00:06:23;;;;;;;0.10;0.10;;;;;;;;;;4846539;29;20044;-89
2021/12/25 00:08:49;;;;;;;0.10;0.10;;;;;;;;;;4846477;29;20041;-88
2021/12/25 00:11:15;;;;;;;0.20;0.20;;;;;;;;;;4862254;29;20049;-89
2021/12/25 00:13:41;;;;;;;0.20;0.20;;;;;;;;;;4861743;29;20045;-88
2021/12/25 00:16:07;;;;;;;0.10;0.10;;;;;;;;;;4846502;29;20053;-89
2021/12/25 00:18:34;;;;;;;0.10;0.10;;;;;;;;;;4861780;29;20397;-89
2021/12/25 00:21:00;;;;;;;0.10;0.10;;;;;;;;;;4861681;29;20084;-88
2021/12/25 00:23:26;;;;;;;0.10;0.10;;;;;;;;;;4861379;29;20109;-89
2021/12/25 00:26:00;;;;;;;0.10;0.10;;;;;;;;;;4846236;29;20057;-89
2021/12/25 00:36:02;;;;;;;0.10;0.10;;;;;;;;;;4862966;29;20078;-89
2021/12/25 00:38:28;;;;;;;0.00;0.00;;;;;;;;;;4861621;29;20192;-89
2021/12/25 00:40:54;;;;;;;0.10;0.10;;;;;;;;;;4861837;29;20219;-89
2021/12/25 00:43:20;;;;;;;0.10;0.10;;;;;;;;;;4845875;29;20041;-89
2021/12/25 00:45:46;;;;;;;0.10;0.10;;;;;;;;;;4846266;29;20490;-89
2021/12/25 00:48:11;;;;;;;0.10;0.10;;;;;;;;;;4845911;29;20096;-89
2021/12/25 00:50:37;;;;;;;0.10;0.10;;;;;;;;;;4846044;29;20569;-90
2021/12/25 00:53:03;;;;;;;0.10;0.10;;;;;;;;;;4845859;29;20466;-89
2021/12/25 00:55:29;;;;;;;0.10;0.10;;;;;;;;;;4845996;29;20405;-89
2021/12/25 00:57:55;;;;;;;0.10;0.10;;;;;;;;;;4861293;29;20189;-89
2021/12/25 01:00:21;;;;;;;0.00;0.00;;;;;;;;;;4846071;29;20049;-90
2021/12/25 01:02:47;;;;;;;0.00;0.00;;;;;;;;;;4861313;29;20059;-89
2021/12/25 01:05:13;;;;;;;0.10;0.10;;;;;;;;;;4861096;29;20037;-89
2021/12/25 01:07:39;;;;;;;0.10;0.10;;;;;;;;;;4861322;29;20045;-89
2021/12/25 01:10:07;;;;;;;0.10;0.10;;;;;;;;;;4860911;29;20048;-89
2021/12/25 01:12:47;;;;;;;0.10;0.10;;;;;;;;;;4845886;29;20048;-89
2021/12/25 01:15:14;;;;;;;0.10;0.10;;;;;;;;;;4847344;29;20073;-89
2021/12/25 01:20:28;;;;;;;0.10;0.10;;;;;;;;;;4861383;29;20049;-89
2021/12/25 01:28:42;;;;;;;0.10;0.10;;;;;;;;;;4861261;29;20041;-88
2021/12/25 01:31:02;;;;;;;0.10;0.10;;;;;;;;;;4863467;29;20494;-89
2021/12/25 01:39:08;;;;;;;0.00;0.00;;;;;;;;;;4885248;29;20118;-89
2021/12/25 01:49:52;;;;;;;0.10;0.10;;;;;;;;;;4906731;29;20315;-88
2021/12/25 01:52:24;;;;;;;0.10;0.10;;;;;;;;;;4863574;29;20049;-89
2021/12/25 01:54:50;;;;;;;0.10;0.10;;;;;;;;;;4849834;29;20037;-88
2021/12/25 01:57:16;;;;;;;0.10;0.10;;;;;;;;;;4848595;29;20068;-88
2021/12/25 01:59:42;;;;;;;0.10;0.10;;;;;;;;;;4864258;29;20120;-89
2021/12/25 02:02:08;;;;;;;0.10;0.10;;;;;;;;;;4848723;29;20069;-88
2021/12/25 02:04:34;;;;;;;0.10;0.10;;;;;;;;;;4864089;29;20049;-89
2021/12/25 02:07:00;;;;;;;0.10;0.10;;;;;;;;;;4848674;29;20128;-89
2021/12/25 02:09:27;;;;;;;0.10;0.10;;;;;;;;;;4848569;29;20045;-90
2021/12/25 02:11:53;;;;;;;0.10;0.10;;;;;;;;;;4848707;29;20390;-90
2021/12/25 02:14:19;;;;;;;0.10;0.10;;;;;;;;;;4848862;29;20131;-90
2021/12/25 02:17:13;;;;;;;0.10;0.10;;;;;;;;;;4848771;29;20092;-89
2021/12/25 02:19:47;;;;;;;0.10;0.10;;;;;;;;;;4852150;29;20045;-90
2021/12/25 02:22:13;;;;;;;0.10;0.10;;;;;;;;;;4849046;29;20045;-89
2021/12/25 02:24:40;;;;;;;0.10;0.10;;;;;;;;;;4848020;29;20060;-90
2021/12/25 02:27:06;;;;;;;0.10;0.10;;;;;;;;;;4848476;29;20489;-90
2021/12/25 02:29:32;;;;;;;0.10;0.10;;;;;;;;;;4848094;29;20084;-89
2021/12/25 02:31:58;;;;;;;0.10;0.10;;;;;;;;;;4863467;29;20033;-89
2021/12/25 02:34:24;;;;;;;0.10;0.10;;;;;;;;;;4863754;29;20120;-91
2021/12/25 02:36:50;;;;;;;0.10;0.10;;;;;;;;;;4848179;29;20045;-90
2021/12/25 02:39:16;;;;;;;0.10;0.10;;;;;;;;;;4863405;29;20049;-89
2021/12/25 02:41:42;;;;;;;0.10;0.10;;;;;;;;;;4863213;29;21398;-88
2021/12/25 02:44:08;;;;;;;0.20;0.20;;;;;;;;;;4863482;29;20398;-88
2021/12/25 02:46:35;;;;;;;0.10;0.10;;;;;;;;;;4878640;29;20041;-88
2021/12/25 02:49:00;;;;;;;0.00;0.00;;;;;;;;;;4847857;29;20450;-88
2021/12/25 02:51:27;;;;;;;0.10;0.10;;;;;;;;;;4847671;29;20101;-88
2021/12/25 02:53:52;;;;;;;0.10;0.10;;;;;;;;;;4863208;29;20040;-88
2021/12/25 02:56:18;;;;;;;0.10;0.10;;;;;;;;;;4847503;29;20056;-87
2021/12/25 02:58:44;;;;;;;0.10;0.10;;;;;;;;;;4847851;29;20160;-88
2021/12/25 03:01:15;;;;;;;0.10;0.10;;;;;;;;;;4847508;29;20044;-88
2021/12/25 03:03:41;;;;;;;0.10;0.10;;;;;;;;;;4847272;29;20101;-88
2021/12/25 03:06:07;;;;;;;0.10;0.10;;;;;;;;;;4862787;29;20045;-88
2021/12/25 03:08:33;;;;;;;0.10;0.10;;;;;;;;;;4847278;29;20059;-88
2021/12/25 03:10:59;;;;;;;0.00;0.00;;;;;;;;;;4847487;29;20128;-89
2021/12/25 03:13:37;;;;;;;0.10;0.10;;;;;;;;;;4862709;29;20085;-89
2021/12/25 03:16:07;;;;;;;0.10;0.10;;;;;;;;;;4848902;29;20052;-88
2021/12/25 03:18:36;;;;;;;0.03;0.03;;;;;;;;;;4847672;29;20136;-89
2021/12/25 03:21:04;;;;;;;0.10;0.10;;;;;;;;;;4877785;29;20498;-88
2021/12/25 03:23:30;;;;;;;0.10;0.10;;;;;;;;;;4847371;29;20053;-88
2021/12/25 03:25:57;;;;;;;0.10;0.10;;;;;;;;;;4846994;29;20095;-89
2021/12/25 03:28:24;;;;;;;0.10;0.10;;;;;;;;;;4862373;29;20116;-88
2021/12/25 03:30:50;;;;;;;0.10;0.10;;;;;;;;;;4847222;29;20536;-88
2021/12/25 03:33:17;;;;;;;0.00;0.00;;;;;;;;;;4862147;29;20059;-88
2021/12/25 03:35:43;;;;;;;0.08;0.08;;;;;;;;;;4862205;29;20513;-89
2021/12/25 03:38:10;;;;;;;0.10;0.10;;;;;;;;;;4846874;29;20053;-89
2021/12/25 03:40:36;;;;;;;0.10;0.10;;;;;;;;;;4862159;29;20076;-88
2021/12/25 03:43:02;;;;;;;0.10;0.10;;;;;;;;;;4862123;29;20148;-87
2021/12/25 03:45:30;;;;;;;0.00;0.00;;;;;;;;;;4846640;29;20485;-87
2021/12/25 03:48:26;;;;;;;0.10;0.10;;;;;;;;;;4862454;29;20133;-86
2021/12/25 03:58:49;;;;;;;0.10;0.10;;;;;;;;;;4877211;29;20140;-86
2021/12/25 04:04:19;;;;;;;0.00;0.00;;;;;;;;;;4863415;29;20056;-86
2021/12/25 04:06:45;;;;;;;0.10;0.10;;;;;;;;;;4864254;29;20437;-87
2021/12/25 04:09:21;;;;;;;0.10;0.10;;;;;;;;;;4846463;29;20044;-87
2021/12/25 04:11:47;;;;;;;0.10;0.10;;;;;;;;;;4863082;29;20049;-87
2021/12/25 04:14:13;;;;;;;0.10;0.10;;;;;;;;;;4861810;29;20395;-87
2021/12/25 04:16:39;;;;;;;0.10;0.10;;;;;;;;;;4861602;29;20044;-86
2021/12/25 04:19:06;;;;;;;0.10;0.10;;;;;;;;;;4877135;29;20045;-86
2021/12/25 04:21:32;;;;;;;0.10;0.10;;;;;;;;;;4876939;29;20045;-86
2021/12/25 04:23:58;;;;;;;0.10;0.10;;;;;;;;;;4845968;29;20416;-87
2021/12/25 04:26:25;;;;;;;0.10;0.10;;;;;;;;;;4876856;29;20051;-87
2021/12/25 04:31:46;;;;;;;0.10;0.10;;;;;;;;;;4862142;29;20051;-87
2021/12/25 05:04:21;;;;;;;0.10;0.10;;;;;;;;;;4862312;29;20406;-87
2021/12/25 05:06:48;;;;;;;0.00;0.00;;;;;;;;;;4846696;29;20049;-87
2021/12/25 05:09:14;;;;;;;0.10;0.10;;;;;;;;;;4861429;29;20049;-88
2021/12/25 05:11:40;;;;;;;0.10;0.10;;;;;;;;;;4845537;29;20045;-87
2021/12/25 05:14:06;;;;;;;0.10;0.10;;;;;;;;;;4860968;29;20047;-87
2021/12/25 05:16:32;;;;;;;0.10;0.10;;;;;;;;;;4861194;29;20049;-87
2021/12/25 05:18:58;;;;;;;0.55;0.43;;;;;;;;;;4861350;29;20045;-87
2021/12/25 05:21:24;;;;;;;0.10;0.10;;;;;;;;;;4849259;29;20045;-87
2021/12/25 05:23:50;;;;;;;0.10;0.10;;;;;;;;;;4864449;29;20059;-88
2021/12/25 05:26:16;;;;;;;0.10;0.10;;;;;;;;;;4880084;29;20049;-87
2021/12/25 05:28:45;;;;;;;0.00;0.00;;;;;;;;;;4864878;29;20056;-87
2021/12/25 05:31:12;;;;;;;0.10;0.10;;;;;;;;;;4849665;29;20481;-87
2021/12/25 05:33:38;;;;;;;0.15;0.10;;;;;;;;;;4849098;29;20041;-87
2021/12/25 05:36:04;;;;;;;0.00;0.00;;;;;;;;;;4864528;29;20056;-87
2021/12/25 05:38:30;;;;;;;0.10;0.10;;;;;;;;;;4864556;29;20041;-87
2021/12/25 05:40:56;;;;;;;0.10;0.10;;;;;;;;;;4848907;29;20041;-87
2021/12/25 05:43:22;;;;;;;0.10;0.10;;;;;;;;;;4864023;29;20548;-88
2021/12/25 05:45:48;;;;;;;0.10;0.10;;;;;;;;;;4864276;29;20045;-88
2021/12/25 05:48:14;;;;;;;0.10;0.10;;;;;;;;;;4848826;29;20041;-88
2021/12/25 05:50:40;;;;;;;0.10;0.10;;;;;;;;;;4848910;29;20045;-88
2021/12/25 05:53:06;;;;;;;0.05;0.05;;;;;;;;;;4848726;29;20497;-89
2021/12/25 05:55:32;;;;;;;0.10;0.10;;;;;;;;;;4863956;29;20105;-87
2021/12/25 05:57:59;;;;;;;0.10;0.10;;;;;;;;;;4864107;29;20107;-87
2021/12/25 06:00:25;;;;;;;0.10;0.10;;;;;;;;;;4848577;29;20135;-87
2021/12/25 06:02:51;;;;;;;0.10;0.10;;;;;;;;;;4848297;29;20085;-87
2021/12/25 06:05:17;;;;;;;0.10;0.10;;;;;;;;;;4848538;29;20052;-88
2021/12/25 06:07:43;;;;;;;0.10;0.10;;;;;;;;;;4863737;29;20072;-88
2021/12/25 06:10:10;;;;;;;0.10;0.10;;;;;;;;;;4848513;29;20080;-87
2021/12/25 06:12:40;;;;;;;0.10;0.10;;;;;;;;;;4863718;29;20045;-88
2021/12/25 06:15:07;;;;;;;0.10;0.10;;;;;;;;;;4879212;29;20041;-87
2021/12/25 06:17:33;;;;;;;0.10;0.10;;;;;;;;;;4848541;29;20413;-88
2021/12/25 06:19:59;;;;;;;0.10;0.10;;;;;;;;;;4848356;29;20077;-87
2021/12/25 06:22:25;;;;;;;0.10;0.10;;;;;;;;;;4863430;29;20406;-88
2021/12/25 06:24:51;;;;;;;0.10;0.10;;;;;;;;;;4847984;29;20120;-87
2021/12/25 06:27:17;;;;;;;0.10;0.10;;;;;;;;;;4878847;29;20075;-88
2021/12/25 06:29:43;;;;;;;0.10;0.10;;;;;;;;;;4863673;29;20105;-87
2021/12/25 06:32:09;;;;;;;0.10;0.10;;;;;;;;;;4862735;29;20189;-88
2021/12/25 06:34:35;;;;;;;0.10;0.10;;;;;;;;;;4863465;29;20076;-88
2021/12/25 06:37:01;;;;;;;0.10;0.10;;;;;;;;;;4848032;29;20465;-87
2021/12/25 06:39:27;;;;;;;0.10;0.10;;;;;;;;;;4863211;29;20049;-88
2021/12/25 06:41:53;;;;;;;0.10;0.10;;;;;;;;;;4847781;29;20052;-87
2021/12/25 06:44:23;;;;;;;0.10;0.10;;;;;;;;;;4847723;29;20080;-88
2021/12/25 06:46:49;;;;;;;0.10;0.10;;;;;;;;;;4847995;29;20040;-88
2021/12/25 06:49:15;;;;;;;0.10;0.10;;;;;;;;;;4863238;29;20128;-87
2021/12/25 06:51:41;;;;;;;0.10;0.10;;;;;;;;;;4847667;29;20185;-88
2021/12/25 06:54:07;;;;;;;0.10;0.10;;;;;;;;;;4848024;29;20056;-88
2021/12/25 06:56:33;;;;;;;0.10;0.10;;;;;;;;;;4863161;29;20045;-88
2021/12/25 06:58:59;;;;;;;0.10;0.10;;;;;;;;;;4864136;29;20141;-88
2021/12/25 07:01:25;;;;;;;0.70;0.30;;;;;;;;;;4847771;29;20136;-89
2021/12/25 07:03:51;;;;;;;0.10;0.10;;;;;;;;;;4847327;29;20041;-88
2021/12/25 07:06:17;;;;;;;0.10;0.10;;;;;;;;;;4878289;29;20061;-88
2021/12/25 07:08:43;;;;;;;0.10;0.10;;;;;;;;;;4862609;29;20097;-86
2021/12/25 07:11:09;;;;;;;0.10;0.10;;;;;;;;;;4863112;29;20084;-87
2021/12/25 07:13:35;;;;;;;0.10;0.10;;;;;;;;;;4877958;29;20044;-88
2021/12/25 07:16:01;;;;;;;0.10;0.10;;;;;;;;;;4862763;29;20076;-86
2021/12/25 07:18:27;;;;;;;0.10;0.10;;;;;;;;;;4862531;29;20085;-88
2021/12/25 07:20:52;;;;;;;0.10;0.10;;;;;;;;;;4847410;29;20511;-87
2021/12/25 07:23:19;;;;;;;0.10;0.10;;;;;;;;;;4862589;29;20049;-89
2021/12/25 07:25:45;;;;;;;0.10;0.10;;;;;;;;;;4862764;29;20060;-91
2021/12/25 07:28:11;;;;;;;0.10;0.10;;;;;;;;;;4863041;29;20111;-89
2021/12/25 07:30:37;;;;;;;0.10;0.10;;;;;;;;;;4847241;29;20049;-90
2021/12/25 07:33:03;;;;;;;0.10;0.10;;;;;;;;;;4877848;29;20092;-87
2021/12/25 07:35:29;;;;;;;0.10;0.10;;;;;;;;;;4877717;29;20044;-89
2021/12/25 07:37:55;;;;;;;0.10;0.10;;;;;;;;;;4847773;29;20041;-87
2021/12/25 07:40:21;;;;;;;0.00;0.00;;;;;;;;;;4847344;29;20061;-89
2021/12/25 07:42:47;;;;;;;0.10;0.10;;;;;;;;;;4861769;29;20052;-90
2021/12/25 07:45:14;;;;;;;0.10;0.10;;;;;;;;;;4862375;29;20510;-90
2021/12/25 07:47:47;;;;;;;0.10;0.10;;;;;;;;;;4878233;29;20135;-90
2021/12/25 07:50:14;;;;;;;0.10;0.10;;;;;;;;;;4847888;29;20088;-91
2021/12/25 07:52:40;;;;;;;0.10;0.10;;;;;;;;;;4847051;29;20079;-92
2021/12/25 07:55:06;;;;;;;0.10;0.10;;;;;;;;;;4847068;29;20049;-90
2021/12/25 07:57:32;;;;;;;0.10;0.10;;;;;;;;;;4862398;29;20076;-90
2021/12/25 07:59:58;;;;;;;0.10;0.10;;;;;;;;;;4862377;29;20488;-88
2021/12/25 08:02:24;;;;;;;0.10;0.10;;;;;;;;;;4861820;29;20135;-87
2021/12/25 08:04:50;;;;;;;0.10;0.10;;;;;;;;;;4861730;29;20055;-88
2021/12/25 08:07:16;;;;;;;0.10;0.10;;;;;;;;;;4846505;29;20037;-87
2021/12/25 08:09:43;;;;;;;0.10;0.10;;;;;;;;;;4877250;29;20044;-88
2021/12/25 08:12:09;;;;;;;0.00;0.00;;;;;;;;;;4861736;29;20083;-89
2021/12/25 08:14:35;;;;;;;0.10;0.10;;;;;;;;;;4861843;29;20092;-88
2021/12/25 08:17:01;;;;;;;0.10;0.10;;;;;;;;;;4846522;29;20131;-88
2021/12/25 08:19:27;;;;;;;0.10;0.10;;;;;;;;;;4877361;29;20053;-88
2021/12/25 08:21:53;;;;;;;0.10;0.10;;;;;;;;;;4846333;29;20052;-86
2021/12/25 08:24:19;;;;;;;0.10;0.10;;;;;;;;;;4877789;29;20064;-88
2021/12/25 08:26:46;;;;;;;0.10;0.10;;;;;;;;;;4877116;29;20045;-87
2021/12/25 08:29:12;;;;;;;0.00;0.00;;;;;;;;;;4861922;29;20045;-88
2021/12/25 08:31:38;;;;;;;0.10;0.10;;;;;;;;;;4846368;29;20047;-88
2021/12/25 08:34:04;;;;;;;0.10;0.10;;;;;;;;;;4877174;29;20097;-89
2021/12/25 08:36:30;;;;;;;0.10;0.10;;;;;;;;;;4846570;29;20045;-88
2021/12/25 08:38:56;;;;;;;0.10;0.10;;;;;;;;;;4861639;29;20051;-91
2021/12/25 08:41:26;;;;;;;0.10;0.10;;;;;;;;;;4861885;29;20449;-87
2021/12/25 08:43:57;;;;;;;0.10;0.10;;;;;;;;;;4876963;29;20055;-88
2021/12/25 08:46:42;;;;;;;0.10;0.10;;;;;;;;;;4862183;29;20557;-86
2021/12/25 08:49:09;;;;;;;0.10;0.10;;;;;;;;;;4848689;29;20465;-86
2021/12/25 08:51:35;;;;;;;0.00;0.00;;;;;;;;;;4861596;29;20045;-87
2021/12/25 08:54:01;;;;;;;0.10;0.10;;;;;;;;;;4877267;29;20550;-87
2021/12/25 08:56:27;;;;;;;0.15;0.15;;;;;;;;;;4865025;29;20049;-87
2021/12/25 08:58:53;;;;;;;0.10;0.10;;;;;;;;;;4849951;29;20045;-86
2021/12/25 09:01:19;;;;;;;0.10;0.10;;;;;;;;;;4865340;29;20059;-85
2021/12/25 09:03:45;;;;;;;0.10;0.10;;;;;;;;;;4876017;29;20101;-86
2021/12/25 09:06:11;;;;;;;0.10;0.10;;;;;;;;;;4864475;29;20056;-86
2021/12/25 09:08:37;;;;;;;0.10;0.10;;;;;;;;;;4864808;29;20101;-86
2021/12/25 09:11:03;;;;;;;0.10;0.10;;;;;;;;;;4865424;29;20429;-86
2021/12/25 09:13:29;;;;;;;0.10;0.10;;;;;;;;;;4846732;29;20409;-85
2021/12/25 09:15:55;;;;;;;0.10;0.10;;;;;;;;;;4846775;29;20049;-86
2021/12/25 09:18:21;;;;;;;0.10;0.10;;;;;;;;;;4846967;29;20441;-86
2021/12/25 09:20:47;;;;;;;0.10;0.10;;;;;;;;;;4847140;29;20086;-86
2021/12/25 09:23:13;;;;;;;0.10;0.10;;;;;;;;;;4861636;29;20046;-86
2021/12/25 09:25:39;;;;;;;0.10;0.10;;;;;;;;;;4846694;29;20126;-86
2021/12/25 09:28:05;;;;;;;0.10;0.10;;;;;;;;;;4846491;29;20041;-85
2021/12/25 09:30:31;;;;;;;0.15;0.15;;;;;;;;;;4861987;29;20069;-86
2021/12/25 09:32:57;;;;;;;0.10;0.10;;;;;;;;;;4859163;29;20101;-85
2021/12/25 09:35:24;;;;;;;0.00;0.00;;;;;;;;;;4846510;29;20071;-85
2021/12/25 09:37:50;;;;;;;0.10;0.10;;;;;;;;;;4858633;29;20038;-84
2021/12/25 09:40:16;;;;;;;0.00;0.00;;;;;;;;;;4855290;29;20135;-86
2021/12/25 09:42:44;;;;;;;0.10;0.10;;;;;;;;;;4877079;29;20128;-84
2021/12/25 09:45:10;;;;;;;0.00;0.00;;;;;;;;;;4877164;29;20053;-86
2021/12/25 09:47:36;;;;;;;0.10;0.10;;;;;;;;;;4887250;29;20048;-88
2021/12/25 09:50:02;;;;;;;0.10;0.10;;;;;;;;;;4849039;29;20089;-88
2021/12/25 09:52:28;;;;;;;0.10;0.10;;;;;;;;;;4864538;29;20524;-88
2021/12/25 09:54:55;;;;;;;0.10;0.10;;;;;;;;;;4864313;29;20078;-87
2021/12/25 09:57:21;;;;;;;0.00;0.00;;;;;;;;;;4845161;29;20045;-87
2021/12/25 09:59:49;;;;;;;0.10;0.10;;;;;;;;;;4845791;29;20051;-87
2021/12/25 10:02:16;;;;;;;0.10;0.10;;;;;;;;;;4845768;29;20050;-88
2021/12/25 10:04:42;;;;;;;0.10;0.10;;;;;;;;;;4845468;29;20574;-86
2021/12/25 10:07:16;;;;;;;0.10;0.10;;;;;;;;;;4852250;29;20204;-86
2021/12/25 10:09:42;;;;;;;0.10;0.10;;;;;;;;;;4848570;29;20045;-86
2021/12/25 10:12:12;;;;;;;0.10;0.10;;;;;;;;;;4863584;29;20041;-86
2021/12/25 10:14:39;;;;;;;0.00;0.00;;;;;;;;;;4862379;29;20074;-88
2021/12/25 10:17:12;;;;;;;0.75;0.75;;;;;;;;;;4848039;29;20046;-86
2021/12/25 10:19:38;;;;;;;0.10;0.10;;;;;;;;;;4866340;29;20401;-86
2021/12/25 10:22:07;;;;;;;0.10;0.10;;;;;;;;;;4860663;29;20136;-87
2021/12/25 10:24:41;;;;;;;0.00;0.00;;;;;;;;;;4859333;29;20057;-87
2021/12/25 10:27:15;;;;;;;0.10;0.10;;;;;;;;;;4849251;29;20104;-87
2021/12/25 10:29:41;;;;;;;0.00;0.00;;;;;;;;;;4854133;29;20052;-88
2021/12/25 10:32:17;;;;;;;0.60;0.60;;;;;;;;;;4871791;29;20049;-88
2021/12/25 10:34:43;;;;;;;0.00;0.00;;;;;;;;;;4875010;29;20072;-86
2021/12/25 10:37:10;;;;;;;0.05;0.05;;;;;;;;;;4894473;29;20049;-88
2021/12/25 10:39:36;;;;;;;0.00;0.00;;;;;;;;;;4878736;29;20081;-88
2021/12/25 10:42:08;;;;;;;0.00;0.00;;;;;;;;;;4848009;29;20143;-88
2021/12/25 10:44:36;;;;;;;0.00;0.00;;;;;;;;;;4848766;29;20408;-88
2021/12/25 10:47:12;;;;;;;0.00;0.00;;;;;;;;;;4878213;29;20045;-87
2021/12/25 10:49:46;;;;;;;0.08;0.08;;;;;;;;;;4863331;29;20071;-88
2021/12/25 10:52:24;;;;;;;0.10;0.10;;;;;;;;;;4847710;29;20037;-89
2021/12/25 10:54:54;;;;;;;0.10;0.10;;;;;;;;;;4844016;29;20061;-88
2021/12/25 10:57:31;;;;;;;0.00;0.00;;;;;;;;;;4874396;29;20055;-87
2021/12/25 10:59:57;;;;;;;0.10;0.10;;;;;;;;;;4844005;29;20068;-86
2021/12/25 11:02:30;;;;;;;0.10;0.10;;;;;;;;;;4876809;29;20140;-87
2021/12/25 11:04:56;;;;;;;0.00;0.00;;;;;;;;;;4843868;29;20050;-87
2021/12/25 11:07:22;;;;;;;0.10;0.10;;;;;;;;;;4861023;29;20048;-88
2021/12/25 11:10:04;;;;;;;0.00;0.00;;;;;;;;;;4854102;29;20553;-86
2021/12/25 11:12:31;;;;;;;0.10;0.10;;;;;;;;;;4862669;29;20093;-88
2021/12/25 11:15:14;;;;;;;0.10;0.10;;;;;;;;;;4847618;29;20144;-87
2021/12/25 11:17:41;;;;;;;0.10;0.10;;;;;;;;;;4847288;29;20049;-89
2021/12/25 11:20:16;;;;;;;0.10;0.10;;;;;;;;;;4844539;29;20056;-87
2021/12/25 11:22:48;;;;;;;0.10;0.10;;;;;;;;;;4860952;29;20428;-86
2021/12/25 11:25:15;;;;;;;0.10;0.10;;;;;;;;;;4859416;29;20334;-87
2021/12/25 11:27:41;;;;;;;0.00;0.00;;;;;;;;;;4853596;29;20136;-88
2021/12/25 11:30:07;;;;;;;0.00;0.00;;;;;;;;;;4846476;29;20104;-88
2021/12/25 11:32:33;;;;;;;0.00;0.00;;;;;;;;;;4845748;29;20097;-89
2021/12/25 11:34:59;;;;;;;0.00;0.00;;;;;;;;;;4858272;29;20124;-86
2021/12/25 11:37:26;;;;;;;0.10;0.10;;;;;;;;;;4843966;29;20060;-88
2021/12/25 11:39:53;;;;;;;0.05;0.05;;;;;;;;;;4845703;29;20113;-88
2021/12/25 11:42:19;;;;;;;0.05;0.05;;;;;;;;;;4847055;29;20080;-89
2021/12/25 11:44:49;;;;;;;0.00;0.00;;;;;;;;;;4843373;29;20052;-84
2021/12/25 11:47:31;;;;;;;0.05;0.05;;;;;;;;;;4873200;29;20068;-86
2021/12/25 11:50:01;;;;;;;0.10;0.10;;;;;;;;;;4862101;29;20113;-88
2021/12/25 11:52:32;;;;;;;0.10;0.10;;;;;;;;;;4858432;29;20133;-87
2021/12/25 11:55:24;;;;;;;0.10;0.10;;;;;;;;;;4858974;29;20125;-86
2021/12/25 11:58:05;;;;;;;0.00;0.00;;;;;;;;;;4843518;29;20045;-87
2021/12/25 12:00:34;;;;;;;0.10;0.10;;;;;;;;;;4858962;29;20398;-87
2021/12/25 12:03:00;;;;;;;0.00;0.00;;;;;;;;;;4860005;29;20056;-87
2021/12/25 12:05:27;;;;;;;0.00;0.00;;;;;;;;;;4843419;29;20473;-88
2021/12/25 12:08:10;;;;;;;0.00;0.00;;;;;;;;;;4859032;29;20056;-88
2021/12/25 12:10:45;;;;;;;0.00;0.00;;;;;;;;;;4843596;29;20049;-89
2021/12/25 12:13:18;;;;;;;0.00;0.00;;;;;;;;;;4858841;29;20077;-87
2021/12/25 12:15:45;;;;;;;0.10;0.10;;;;;;;;;;4843616;29;20063;-87
2021/12/25 12:18:31;;;;;;;0.00;0.00;;;;;;;;;;4855439;29;20050;-88
2021/12/25 12:21:07;;;;;;;0.03;0.03;;;;;;;;;;4859752;29;20053;-85
2021/12/25 12:24:26;;;;;;;0.03;0.03;;;;;;;;;;4859267;29;20049;-84
2021/12/25 12:26:39;;;;;;;0.10;0.10;;;;;;;;;;4887416;29;20404;-84
2021/12/25 12:29:05;;;;;;;0.10;0.10;;;;;;;;;;4866748;29;20490;-84
2021/12/25 12:31:37;;;;;;;0.00;0.00;;;;;;;;;;4859268;29;20109;-84
2021/12/25 12:34:06;;;;;;;0.10;0.10;;;;;;;;;;4871552;29;20041;-85
2021/12/25 12:36:32;;;;;;;0.00;0.00;;;;;;;;;;4855304;29;20049;-86
2021/12/25 12:39:14;;;;;;;0.00;0.00;;;;;;;;;;4843193;29;20492;-84
2021/12/25 12:41:49;;;;;;;0.00;0.00;;;;;;;;;;4829099;29;20070;-84
2021/12/25 12:44:16;;;;;;;0.00;0.00;;;;;;;;;;4860493;29;20473;-84
2021/12/25 12:46:52;;;;;;;0.00;0.00;;;;;;;;;;4861512;29;20496;-84
2021/12/25 12:49:37;;;;;;;0.00;0.00;;;;;;;;;;4878265;29;20056;-84
2021/12/25 12:52:17;;;;;;;0.00;0.00;;;;;;;;;;4872495;29;20128;-84
2021/12/25 12:54:57;;;;;;;0.00;0.00;;;;;;;;;;4861154;29;20097;-86
2021/12/25 12:57:28;;;;;;;0.00;0.00;;;;;;;;;;4873761;29;20130;-86
2021/12/25 12:59:55;;;;;;;0.00;0.00;;;;;;;;;;4846300;29;20038;-85
2021/12/25 13:02:23;;;;;;;0.10;0.10;;;;;;;;;;4873804;29;20401;-85
2021/12/25 13:04:53;;;;;;;0.10;0.10;;;;;;;;;;4870346;29;20037;-85
2021/12/25 13:07:21;;;;;;;0.10;0.10;;;;;;;;;;4860113;29;20049;-83
2021/12/25 13:09:58;;;;;;;0.10;0.10;;;;;;;;;;4876488;29;20045;-85
2021/12/25 13:12:44;;;;;;;0.00;0.00;;;;;;;;;;4861219;29;20048;-86
2021/12/25 13:15:14;;;;;;;0.00;0.00;;;;;;;;;;4857934;29;20097;-85
2021/12/25 13:17:46;;;;;;;0.10;0.10;;;;;;;;;;4862071;29;20056;-85
2021/12/25 13:20:12;;;;;;;0.10;0.10;;;;;;;;;;4857815;29;20083;-84
2021/12/25 13:22:38;;;;;;;0.10;0.10;;;;;;;;;;4867940;29;20077;-85
2021/12/25 13:25:05;;;;;;;0.00;0.00;;;;;;;;;;4857868;29;20068;-84
2021/12/25 13:27:31;;;;;;;0.10;0.10;;;;;;;;;;4869769;29;20049;-83
2021/12/25 13:30:03;;;;;;;0.00;0.00;;;;;;;;;;4860099;29;20105;-84
2021/12/25 13:32:30;;;;;;;0.10;0.10;;;;;;;;;;4873783;29;20514;-84
2021/12/25 13:34:56;;;;;;;0.08;0.08;;;;;;;;;;4874544;29;20064;-83
2021/12/25 13:37:21;;;;;;;0.10;0.10;;;;;;;;;;4861178;29;20041;-84
2021/12/25 13:39:47;;;;;;;0.00;0.00;;;;;;;;;;4861263;29;20053;-84
2021/12/25 13:42:14;;;;;;;0.35;0.35;;;;;;;;;;4874779;29;20041;-84
2021/12/25 13:44:41;;;;;;;0.20;0.20;;;;;;;;;;4848152;29;20041;-83
2021/12/25 13:47:15;;;;;;;0.10;0.10;;;;;;;;;;4845749;29;20044;-83
2021/12/25 13:49:44;;;;;;;0.10;0.10;;;;;;;;;;4851342;29;20089;-84
2021/12/25 13:52:10;;;;;;;0.10;0.10;;;;;;;;;;4877457;29;20045;-83
2021/12/25 13:54:37;;;;;;;0.00;0.00;;;;;;;;;;4873393;29;20107;-83
2021/12/25 13:57:03;;;;;;;0.10;0.10;;;;;;;;;;4863976;29;20076;-84
2021/12/25 13:59:29;;;;;;;0.00;0.00;;;;;;;;;;4864145;29;20045;-84
2021/12/25 14:02:15;;;;;;;0.05;0.05;;;;;;;;;;4863590;29;20092;-84
2021/12/25 14:04:42;;;;;;;0.10;0.10;;;;;;;;;;4894750;29;20060;-85
2021/12/25 14:07:08;;;;;;;0.03;0.03;;;;;;;;;;4880560;29;20037;-84
2021/12/25 14:09:34;;;;;;;0.00;0.00;;;;;;;;;;4860505;29;20191;-85
2021/12/25 14:12:00;;;;;;;0.10;0.10;;;;;;;;;;4845711;29;20124;-85
2021/12/25 14:14:27;;;;;;;0.10;0.10;;;;;;;;;;4860447;29;20045;-85
2021/12/25 14:16:57;;;;;;;0.10;0.10;;;;;;;;;;4858751;29;20052;-86
2021/12/25 14:19:27;;;;;;;0.10;0.10;;;;;;;;;;4863444;29;20101;-87
2021/12/25 14:21:53;;;;;;;0.10;0.10;;;;;;;;;;4878936;29;20041;-86
2021/12/25 14:24:19;;;;;;;0.00;0.00;;;;;;;;;;4863399;29;20064;-85
2021/12/25 14:26:45;;;;;;;0.10;0.10;;;;;;;;;;4862683;29;20049;-85
2021/12/25 14:29:24;;;;;;;0.00;0.00;;;;;;;;;;4863477;29;20067;-86
2021/12/25 14:31:50;;;;;;;0.20;0.20;;;;;;;;;;4863607;29;20449;-86
2021/12/25 14:34:16;;;;;;;0.63;0.63;;;;;;;;;;4877288;29;20072;-85
2021/12/25 14:36:42;;;;;;;0.10;0.10;;;;;;;;;;4859924;29;20053;-87
2021/12/25 14:39:08;;;;;;;0.10;0.10;;;;;;;;;;4829643;29;20045;-85
2021/12/25 14:41:35;;;;;;;0.10;0.10;;;;;;;;;;4844952;29;20105;-85
2021/12/25 14:44:15;;;;;;;0.10;0.10;;;;;;;;;;4854336;29;20084;-84
2021/12/25 14:46:41;;;;;;;0.10;0.10;;;;;;;;;;4844718;29;20449;-86
2021/12/25 14:49:07;;;;;;;0.10;0.10;;;;;;;;;;4844871;29;20489;-86
2021/12/25 14:51:34;;;;;;;0.00;0.00;;;;;;;;;;4844778;29;20045;-84
2021/12/25 14:54:00;;;;;;;0.00;0.00;;;;;;;;;;4859889;29;20524;-84
2021/12/25 14:56:26;;;;;;;0.00;0.00;;;;;;;;;;4844623;29;20047;-84
2021/12/25 14:58:53;;;;;;;0.10;0.10;;;;;;;;;;4860454;29;20053;-86
2021/12/25 15:01:20;;;;;;;0.10;0.10;;;;;;;;;;4844724;29;20072;-85
2021/12/25 15:03:59;;;;;;;0.10;0.10;;;;;;;;;;4859884;29;20086;-85
2021/12/25 15:06:25;;;;;;;0.10;0.10;;;;;;;;;;4845821;29;20042;-83
2021/12/25 15:09:07;;;;;;;0.10;0.10;;;;;;;;;;4848448;29;20045;-84
2021/12/25 15:11:34;;;;;;;0.10;0.10;;;;;;;;;;4844774;29;20035;-84
2021/12/25 15:14:01;;;;;;;0.10;0.10;;;;;;;;;;4860056;29;20068;-85
2021/12/25 15:16:54;;;;;;;0.00;0.00;;;;;;;;;;4844573;29;20045;-85
2021/12/25 15:19:24;;;;;;;0.00;0.00;;;;;;;;;;4859326;29;20061;-86
2021/12/25 15:21:51;;;;;;;0.10;0.10;;;;;;;;;;4844342;29;20045;-86
2021/12/25 15:24:21;;;;;;;0.00;0.00;;;;;;;;;;4844034;29;20057;-86
2021/12/25 15:26:51;;;;;;;0.00;0.00;;;;;;;;;;4844416;29;20064;-86
2021/12/25 15:29:17;;;;;;;0.00;0.00;;;;;;;;;;4844334;29;20105;-90
2021/12/25 15:31:44;;;;;;;0.00;0.00;;;;;;;;;;4844335;29;20404;-86
2021/12/25 15:34:15;;;;;;;0.10;0.10;;;;;;;;;;4859583;29;20134;-86
2021/12/25 15:36:43;;;;;;;0.10;0.10;;;;;;;;;;4844127;29;20129;-86
2021/12/25 15:39:34;;;;;;;0.10;0.10;;;;;;;;;;4844169;29;20092;-86
2021/12/25 15:42:04;;;;;;;0.00;0.00;;;;;;;;;;4844066;29;20049;-85
2021/12/25 15:44:30;;;;;;;0.00;0.00;;;;;;;;;;4844379;29;20086;-85
2021/12/25 15:46:56;;;;;;;0.00;0.00;;;;;;;;;;4843882;29;20041;-85
2021/12/25 15:49:22;;;;;;;0.10;0.10;;;;;;;;;;4843836;29;20553;-85
2021/12/25 15:51:52;;;;;;;0.10;0.10;;;;;;;;;;4843781;29;20046;-85
2021/12/25 15:54:19;;;;;;;0.30;0.30;;;;;;;;;;4843954;29;20050;-85
2021/12/25 15:56:46;;;;;;;0.00;0.00;;;;;;;;;;4843655;29;20049;-86
2021/12/25 15:59:12;;;;;;;0.00;0.00;;;;;;;;;;4843785;29;20163;-85
2021/12/25 16:01:38;;;;;;;0.10;0.10;;;;;;;;;;4859113;29;20159;-86
2021/12/25 16:04:04;;;;;;;0.00;0.00;;;;;;;;;;4843140;29;20068;-86